sensor_id;sensor_type;location;lat;lon;timestamp;P1;durP1;ratioP1;P2;durP2;ratioP2
46318;SDS011;32042;50.916;2.926;2024-01-27T00:01:34;11.70;;;3.93;;
46318;SDS011;32042;50.916;2.926;2024-01-27T00:04:00;16.40;;;3.53;;
46318;SDS011;32042;50.916;2.926;2024-01-27T00:06:28;11.87;;;3.87;;
46318;SDS011;32042;50.916;2.926;2024-01-27T00:08:54;7.43;;;3.43;;
46318;SDS011;32042;50.916;2.926;2024-01-27T00:11:20;10.60;;;3.37;;
46318;SDS011;32042;50.916;2.926;2024-01-27T00:13:48;16.23;;;4.97;;
46318;SDS011;32042;50.916;2.926;2024-01-27T00:16:14;9.37;;;3.83;;
46318;SDS011;32042;50.916;2.926;2024-01-27T00:18:40;10.60;;;3.97;;
46318;SDS011;32042;50.916;2.926;2024-01-27T00:21:06;12.60;;;3.67;;
46318;SDS011;32042;50.916;2.926;2024-01-27T00:23:33;6.10;;;2.73;;
46318;SDS011;32042;50.916;2.926;2024-01-27T00:26:02;12.60;;;3.53;;
46318;SDS011;32042;50.916;2.926;2024-01-27T00:28:28;8.30;;;3.60;;
46318;SDS011;32042;50.916;2.926;2024-01-27T00:30:54;7.10;;;3.80;;
46318;SDS011;32042;50.916;2.926;2024-01-27T00:33:21;10.43;;;3.77;;
46318;SDS011;32042;50.916;2.926;2024-01-27T00:35:47;7.30;;;3.10;;
46318;SDS011;32042;50.916;2.926;2024-01-27T00:38:13;7.60;;;3.37;;
46318;SDS011;32042;50.916;2.926;2024-01-27T00:40:40;14.50;;;3.77;;
46318;SDS011;32042;50.916;2.926;2024-01-27T00:43:06;8.93;;;2.97;;
46318;SDS011;32042;50.916;2.926;2024-01-27T00:45:32;5.47;;;2.77;;
46318;SDS011;32042;50.916;2.926;2024-01-27T00:47:58;10.13;;;3.20;;
46318;SDS011;32042;50.916;2.926;2024-01-27T00:50:24;6.53;;;3.07;;
46318;SDS011;32042;50.916;2.926;2024-01-27T00:52:50;11.23;;;3.00;;
46318;SDS011;32042;50.916;2.926;2024-01-27T00:55:16;11.53;;;3.53;;
46318;SDS011;32042;50.916;2.926;2024-01-27T00:57:42;11.00;;;3.70;;
46318;SDS011;32042;50.916;2.926;2024-01-27T01:00:09;10.23;;;3.47;;
46318;SDS011;32042;50.916;2.926;2024-01-27T01:02:36;8.83;;;3.33;;
46318;SDS011;32042;50.916;2.926;2024-01-27T01:05:02;12.50;;;3.67;;
46318;SDS011;32042;50.916;2.926;2024-01-27T01:07:29;9.33;;;3.30;;
46318;SDS011;32042;50.916;2.926;2024-01-27T01:09:55;8.80;;;3.73;;
46318;SDS011;32042;50.916;2.926;2024-01-27T01:12:21;11.63;;;2.90;;
46318;SDS011;32042;50.916;2.926;2024-01-27T01:14:47;6.80;;;3.17;;
46318;SDS011;32042;50.916;2.926;2024-01-27T01:17:14;7.90;;;2.93;;
46318;SDS011;32042;50.916;2.926;2024-01-27T01:19:40;7.63;;;3.03;;
46318;SDS011;32042;50.916;2.926;2024-01-27T01:22:07;7.73;;;3.27;;
46318;SDS011;32042;50.916;2.926;2024-01-27T01:24:33;5.07;;;3.17;;
46318;SDS011;32042;50.916;2.926;2024-01-27T01:26:59;7.43;;;2.43;;
46318;SDS011;32042;50.916;2.926;2024-01-27T01:29:25;10.70;;;3.23;;
46318;SDS011;32042;50.916;2.926;2024-01-27T01:31:52;9.27;;;2.90;;
46318;SDS011;32042;50.916;2.926;2024-01-27T01:34:18;7.37;;;3.07;;
46318;SDS011;32042;50.916;2.926;2024-01-27T01:36:44;5.40;;;2.70;;
46318;SDS011;32042;50.916;2.926;2024-01-27T01:39:11;11.03;;;3.20;;
46318;SDS011;32042;50.916;2.926;2024-01-27T01:41:40;7.67;;;2.77;;
46318;SDS011;32042;50.916;2.926;2024-01-27T01:44:06;9.37;;;2.90;;
46318;SDS011;32042;50.916;2.926;2024-01-27T01:46:32;10.43;;;3.00;;
46318;SDS011;32042;50.916;2.926;2024-01-27T01:49:02;14.13;;;3.17;;
46318;SDS011;32042;50.916;2.926;2024-01-27T01:51:28;11.57;;;3.00;;
46318;SDS011;32042;50.916;2.926;2024-01-27T01:53:55;14.70;;;3.40;;
46318;SDS011;32042;50.916;2.926;2024-01-27T01:56:22;6.53;;;3.03;;
46318;SDS011;32042;50.916;2.926;2024-01-27T01:58:49;12.90;;;3.60;;
46318;SDS011;32042;50.916;2.926;2024-01-27T02:01:16;10.90;;;3.73;;
46318;SDS011;32042;50.916;2.926;2024-01-27T02:03:51;9.10;;;4.10;;
46318;SDS011;32042;50.916;2.926;2024-01-27T02:06:17;12.57;;;4.07;;
46318;SDS011;32042;50.916;2.926;2024-01-27T02:08:43;11.90;;;4.20;;
46318;SDS011;32042;50.916;2.926;2024-01-27T02:11:09;8.40;;;4.30;;
46318;SDS011;32042;50.916;2.926;2024-01-27T02:13:36;12.93;;;3.93;;
46318;SDS011;32042;50.916;2.926;2024-01-27T02:16:02;13.83;;;4.80;;
46318;SDS011;32042;50.916;2.926;2024-01-27T02:18:28;11.13;;;4.50;;
46318;SDS011;32042;50.916;2.926;2024-01-27T02:20:54;13.80;;;4.63;;
46318;SDS011;32042;50.916;2.926;2024-01-27T02:23:20;11.13;;;5.10;;
46318;SDS011;32042;50.916;2.926;2024-01-27T02:25:46;9.33;;;4.33;;
46318;SDS011;32042;50.916;2.926;2024-01-27T02:28:12;12.53;;;5.57;;
46318;SDS011;32042;50.916;2.926;2024-01-27T02:30:39;11.00;;;4.77;;
46318;SDS011;32042;50.916;2.926;2024-01-27T02:33:05;10.93;;;4.17;;
46318;SDS011;32042;50.916;2.926;2024-01-27T02:35:31;7.13;;;3.13;;
46318;SDS011;32042;50.916;2.926;2024-01-27T02:37:57;6.87;;;2.70;;
46318;SDS011;32042;50.916;2.926;2024-01-27T02:40:23;7.90;;;3.63;;
46318;SDS011;32042;50.916;2.926;2024-01-27T02:42:49;9.87;;;3.63;;
46318;SDS011;32042;50.916;2.926;2024-01-27T02:45:15;10.80;;;5.33;;
46318;SDS011;32042;50.916;2.926;2024-01-27T02:47:41;9.17;;;4.13;;
46318;SDS011;32042;50.916;2.926;2024-01-27T02:50:08;11.23;;;3.47;;
46318;SDS011;32042;50.916;2.926;2024-01-27T02:52:34;6.60;;;3.50;;
46318;SDS011;32042;50.916;2.926;2024-01-27T02:55:00;11.27;;;4.00;;
46318;SDS011;32042;50.916;2.926;2024-01-27T02:57:26;5.77;;;3.33;;
46318;SDS011;32042;50.916;2.926;2024-01-27T02:59:52;9.93;;;4.60;;
46318;SDS011;32042;50.916;2.926;2024-01-27T03:02:18;11.63;;;5.37;;
46318;SDS011;32042;50.916;2.926;2024-01-27T03:04:44;7.80;;;4.80;;
46318;SDS011;32042;50.916;2.926;2024-01-27T03:07:12;10.93;;;5.73;;
46318;SDS011;32042;50.916;2.926;2024-01-27T03:09:38;8.63;;;5.67;;
46318;SDS011;32042;50.916;2.926;2024-01-27T03:12:04;12.10;;;6.00;;
46318;SDS011;32042;50.916;2.926;2024-01-27T03:14:30;10.97;;;5.80;;
46318;SDS011;32042;50.916;2.926;2024-01-27T03:16:56;14.23;;;7.10;;
46318;SDS011;32042;50.916;2.926;2024-01-27T03:19:22;14.17;;;5.97;;
46318;SDS011;32042;50.916;2.926;2024-01-27T03:21:48;18.20;;;8.03;;
46318;SDS011;32042;50.916;2.926;2024-01-27T03:24:14;17.03;;;6.67;;
46318;SDS011;32042;50.916;2.926;2024-01-27T03:26:40;10.37;;;6.00;;
46318;SDS011;32042;50.916;2.926;2024-01-27T03:29:06;13.87;;;6.47;;
46318;SDS011;32042;50.916;2.926;2024-01-27T03:31:32;13.67;;;6.30;;
46318;SDS011;32042;50.916;2.926;2024-01-27T03:34:02;6.67;;;4.67;;
46318;SDS011;32042;50.916;2.926;2024-01-27T03:36:29;14.60;;;6.00;;
46318;SDS011;32042;50.916;2.926;2024-01-27T03:38:56;10.40;;;5.63;;
46318;SDS011;32042;50.916;2.926;2024-01-27T03:41:22;10.10;;;5.47;;
46318;SDS011;32042;50.916;2.926;2024-01-27T03:43:49;11.93;;;5.63;;
46318;SDS011;32042;50.916;2.926;2024-01-27T03:46:15;10.27;;;5.57;;
46318;SDS011;32042;50.916;2.926;2024-01-27T03:48:41;15.17;;;6.73;;
46318;SDS011;32042;50.916;2.926;2024-01-27T03:51:08;17.07;;;7.13;;
46318;SDS011;32042;50.916;2.926;2024-01-27T03:53:34;10.00;;;6.07;;
46318;SDS011;32042;50.916;2.926;2024-01-27T03:56:00;11.90;;;5.73;;
46318;SDS011;32042;50.916;2.926;2024-01-27T03:58:29;7.97;;;5.30;;
46318;SDS011;32042;50.916;2.926;2024-01-27T04:00:58;17.37;;;4.50;;
46318;SDS011;32042;50.916;2.926;2024-01-27T04:03:25;14.30;;;5.07;;
46318;SDS011;32042;50.916;2.926;2024-01-27T04:05:51;15.40;;;5.83;;
46318;SDS011;32042;50.916;2.926;2024-01-27T04:08:19;8.83;;;4.50;;
46318;SDS011;32042;50.916;2.926;2024-01-27T04:10:45;12.70;;;4.90;;
46318;SDS011;32042;50.916;2.926;2024-01-27T04:13:11;8.40;;;4.40;;
46318;SDS011;32042;50.916;2.926;2024-01-27T04:15:37;14.13;;;4.47;;
46318;SDS011;32042;50.916;2.926;2024-01-27T04:18:06;7.73;;;4.07;;
46318;SDS011;32042;50.916;2.926;2024-01-27T04:20:36;8.30;;;4.20;;
46318;SDS011;32042;50.916;2.926;2024-01-27T04:23:02;14.13;;;4.37;;
46318;SDS011;32042;50.916;2.926;2024-01-27T04:25:29;11.57;;;4.37;;
46318;SDS011;32042;50.916;2.926;2024-01-27T04:27:55;15.03;;;4.13;;
46318;SDS011;32042;50.916;2.926;2024-01-27T04:30:21;13.83;;;4.13;;
46318;SDS011;32042;50.916;2.926;2024-01-27T04:32:47;9.47;;;4.83;;
46318;SDS011;32042;50.916;2.926;2024-01-27T04:35:15;15.23;;;4.80;;
46318;SDS011;32042;50.916;2.926;2024-01-27T04:37:41;10.40;;;3.60;;
46318;SDS011;32042;50.916;2.926;2024-01-27T04:40:09;14.70;;;4.77;;
46318;SDS011;32042;50.916;2.926;2024-01-27T04:42:38;12.40;;;5.13;;
46318;SDS011;32042;50.916;2.926;2024-01-27T04:45:05;11.33;;;4.87;;
46318;SDS011;32042;50.916;2.926;2024-01-27T04:47:31;11.87;;;4.90;;
46318;SDS011;32042;50.916;2.926;2024-01-27T04:49:57;14.20;;;4.97;;
46318;SDS011;32042;50.916;2.926;2024-01-27T04:52:23;18.97;;;5.60;;
46318;SDS011;32042;50.916;2.926;2024-01-27T04:54:49;10.13;;;4.70;;
46318;SDS011;32042;50.916;2.926;2024-01-27T04:57:15;12.07;;;4.03;;
46318;SDS011;32042;50.916;2.926;2024-01-27T04:59:42;16.87;;;4.27;;
46318;SDS011;32042;50.916;2.926;2024-01-27T05:02:08;12.43;;;4.70;;
46318;SDS011;32042;50.916;2.926;2024-01-27T05:04:34;10.37;;;4.40;;
46318;SDS011;32042;50.916;2.926;2024-01-27T05:07:00;11.43;;;4.40;;
46318;SDS011;32042;50.916;2.926;2024-01-27T05:09:26;16.87;;;5.10;;
46318;SDS011;32042;50.916;2.926;2024-01-27T05:11:52;13.77;;;5.50;;
46318;SDS011;32042;50.916;2.926;2024-01-27T05:14:18;15.33;;;4.47;;
46318;SDS011;32042;50.916;2.926;2024-01-27T05:16:45;12.90;;;4.87;;
46318;SDS011;32042;50.916;2.926;2024-01-27T05:19:11;16.33;;;5.63;;
46318;SDS011;32042;50.916;2.926;2024-01-27T05:21:40;10.30;;;5.23;;
46318;SDS011;32042;50.916;2.926;2024-01-27T05:24:06;13.10;;;4.47;;
46318;SDS011;32042;50.916;2.926;2024-01-27T05:26:32;16.30;;;5.77;;
46318;SDS011;32042;50.916;2.926;2024-01-27T05:28:58;19.27;;;7.33;;
46318;SDS011;32042;50.916;2.926;2024-01-27T05:31:25;22.07;;;7.50;;
46318;SDS011;32042;50.916;2.926;2024-01-27T05:33:51;11.77;;;7.07;;
46318;SDS011;32042;50.916;2.926;2024-01-27T05:36:17;15.47;;;7.43;;
46318;SDS011;32042;50.916;2.926;2024-01-27T05:38:43;21.40;;;7.67;;
46318;SDS011;32042;50.916;2.926;2024-01-27T05:41:09;17.17;;;6.80;;
46318;SDS011;32042;50.916;2.926;2024-01-27T05:43:35;12.27;;;6.70;;
46318;SDS011;32042;50.916;2.926;2024-01-27T05:46:02;20.87;;;7.87;;
46318;SDS011;32042;50.916;2.926;2024-01-27T05:48:28;24.20;;;9.60;;
46318;SDS011;32042;50.916;2.926;2024-01-27T05:50:57;16.03;;;7.03;;
46318;SDS011;32042;50.916;2.926;2024-01-27T05:53:23;15.20;;;7.23;;
46318;SDS011;32042;50.916;2.926;2024-01-27T05:55:50;11.27;;;6.67;;
46318;SDS011;32042;50.916;2.926;2024-01-27T05:58:16;17.37;;;6.97;;
46318;SDS011;32042;50.916;2.926;2024-01-27T06:00:45;16.13;;;5.93;;
46318;SDS011;32042;50.916;2.926;2024-01-27T06:03:12;13.90;;;4.60;;
46318;SDS011;32042;50.916;2.926;2024-01-27T06:05:39;14.47;;;4.40;;
46318;SDS011;32042;50.916;2.926;2024-01-27T06:08:06;11.00;;;4.20;;
46318;SDS011;32042;50.916;2.926;2024-01-27T06:10:33;10.27;;;4.40;;
46318;SDS011;32042;50.916;2.926;2024-01-27T06:13:01;10.57;;;5.13;;
46318;SDS011;32042;50.916;2.926;2024-01-27T06:15:27;14.87;;;5.67;;
46318;SDS011;32042;50.916;2.926;2024-01-27T06:17:53;16.87;;;8.80;;
46318;SDS011;32042;50.916;2.926;2024-01-27T06:20:19;19.53;;;6.43;;
46318;SDS011;32042;50.916;2.926;2024-01-27T06:22:45;17.17;;;5.80;;
46318;SDS011;32042;50.916;2.926;2024-01-27T06:25:11;14.30;;;5.17;;
46318;SDS011;32042;50.916;2.926;2024-01-27T06:27:38;17.90;;;4.53;;
46318;SDS011;32042;50.916;2.926;2024-01-27T06:30:06;11.70;;;4.67;;
46318;SDS011;32042;50.916;2.926;2024-01-27T06:32:32;9.57;;;4.20;;
46318;SDS011;32042;50.916;2.926;2024-01-27T06:34:58;11.43;;;4.67;;
46318;SDS011;32042;50.916;2.926;2024-01-27T06:37:24;14.93;;;4.97;;
46318;SDS011;32042;50.916;2.926;2024-01-27T06:39:50;15.10;;;4.60;;
46318;SDS011;32042;50.916;2.926;2024-01-27T06:42:16;12.57;;;4.63;;
46318;SDS011;32042;50.916;2.926;2024-01-27T06:44:43;10.97;;;4.40;;
46318;SDS011;32042;50.916;2.926;2024-01-27T06:47:09;16.87;;;4.50;;
46318;SDS011;32042;50.916;2.926;2024-01-27T06:49:35;15.73;;;4.20;;
46318;SDS011;32042;50.916;2.926;2024-01-27T06:52:02;15.17;;;4.47;;
46318;SDS011;32042;50.916;2.926;2024-01-27T06:54:28;13.93;;;4.67;;
46318;SDS011;32042;50.916;2.926;2024-01-27T06:56:54;10.73;;;4.47;;
46318;SDS011;32042;50.916;2.926;2024-01-27T06:59:20;8.83;;;4.07;;
46318;SDS011;32042;50.916;2.926;2024-01-27T07:01:49;16.97;;;4.50;;
46318;SDS011;32042;50.916;2.926;2024-01-27T07:04:15;13.30;;;4.57;;
46318;SDS011;32042;50.916;2.926;2024-01-27T07:06:42;14.53;;;4.50;;
46318;SDS011;32042;50.916;2.926;2024-01-27T07:09:09;14.27;;;4.73;;
46318;SDS011;32042;50.916;2.926;2024-01-27T07:11:36;15.87;;;8.33;;
46318;SDS011;32042;50.916;2.926;2024-01-27T07:14:02;18.03;;;7.70;;
46318;SDS011;32042;50.916;2.926;2024-01-27T07:16:29;15.37;;;5.60;;
46318;SDS011;32042;50.916;2.926;2024-01-27T07:18:55;11.97;;;5.40;;
46318;SDS011;32042;50.916;2.926;2024-01-27T07:21:21;13.37;;;5.23;;
46318;SDS011;32042;50.916;2.926;2024-01-27T07:23:47;8.83;;;4.77;;
46318;SDS011;32042;50.916;2.926;2024-01-27T07:26:13;19.00;;;4.47;;
46318;SDS011;32042;50.916;2.926;2024-01-27T07:28:39;13.10;;;4.63;;
46318;SDS011;32042;50.916;2.926;2024-01-27T07:31:05;13.70;;;5.13;;
46318;SDS011;32042;50.916;2.926;2024-01-27T07:33:31;7.70;;;5.00;;
46318;SDS011;32042;50.916;2.926;2024-01-27T07:35:57;11.77;;;4.83;;
46318;SDS011;32042;50.916;2.926;2024-01-27T07:38:23;17.23;;;4.87;;
46318;SDS011;32042;50.916;2.926;2024-01-27T07:40:49;10.50;;;5.13;;
46318;SDS011;32042;50.916;2.926;2024-01-27T07:43:15;19.33;;;5.37;;
46318;SDS011;32042;50.916;2.926;2024-01-27T07:45:42;31.17;;;15.53;;
46318;SDS011;32042;50.916;2.926;2024-01-27T07:48:09;37.40;;;17.87;;
46318;SDS011;32042;50.916;2.926;2024-01-27T07:50:35;34.80;;;17.80;;
46318;SDS011;32042;50.916;2.926;2024-01-27T07:53:01;32.60;;;17.03;;
46318;SDS011;32042;50.916;2.926;2024-01-27T07:55:27;20.80;;;14.47;;
46318;SDS011;32042;50.916;2.926;2024-01-27T07:57:53;17.20;;;8.83;;
46318;SDS011;32042;50.916;2.926;2024-01-27T08:00:20;12.83;;;7.67;;
46318;SDS011;32042;50.916;2.926;2024-01-27T08:02:46;20.03;;;6.70;;
46318;SDS011;32042;50.916;2.926;2024-01-27T08:05:12;10.93;;;6.63;;
46318;SDS011;32042;50.916;2.926;2024-01-27T08:07:38;17.40;;;9.50;;
46318;SDS011;32042;50.916;2.926;2024-01-27T08:10:04;18.20;;;7.27;;
46318;SDS011;32042;50.916;2.926;2024-01-27T08:12:31;13.60;;;7.53;;
46318;SDS011;32042;50.916;2.926;2024-01-27T08:14:57;13.80;;;7.77;;
46318;SDS011;32042;50.916;2.926;2024-01-27T08:17:23;14.23;;;7.90;;
46318;SDS011;32042;50.916;2.926;2024-01-27T08:19:50;14.23;;;7.50;;
46318;SDS011;32042;50.916;2.926;2024-01-27T08:22:16;18.10;;;6.37;;
46318;SDS011;32042;50.916;2.926;2024-01-27T08:24:42;13.67;;;6.13;;
46318;SDS011;32042;50.916;2.926;2024-01-27T08:27:09;14.67;;;6.33;;
46318;SDS011;32042;50.916;2.926;2024-01-27T08:29:35;17.60;;;7.50;;
46318;SDS011;32042;50.916;2.926;2024-01-27T08:32:01;19.20;;;6.10;;
46318;SDS011;32042;50.916;2.926;2024-01-27T08:34:27;15.23;;;6.33;;
46318;SDS011;32042;50.916;2.926;2024-01-27T08:36:53;19.43;;;6.73;;
46318;SDS011;32042;50.916;2.926;2024-01-27T08:39:23;9.03;;;6.03;;
46318;SDS011;32042;50.916;2.926;2024-01-27T08:41:49;18.53;;;6.17;;
46318;SDS011;32042;50.916;2.926;2024-01-27T08:44:15;9.97;;;5.27;;
46318;SDS011;32042;50.916;2.926;2024-01-27T08:46:41;9.40;;;4.77;;
46318;SDS011;32042;50.916;2.926;2024-01-27T08:49:07;17.43;;;6.23;;
46318;SDS011;32042;50.916;2.926;2024-01-27T08:51:34;12.73;;;6.43;;
46318;SDS011;32042;50.916;2.926;2024-01-27T08:54:00;16.40;;;5.67;;
46318;SDS011;32042;50.916;2.926;2024-01-27T08:56:26;20.73;;;6.57;;
46318;SDS011;32042;50.916;2.926;2024-01-27T08:58:52;17.10;;;5.73;;
46318;SDS011;32042;50.916;2.926;2024-01-27T09:01:19;11.43;;;5.83;;
46318;SDS011;32042;50.916;2.926;2024-01-27T09:03:45;18.27;;;10.37;;
46318;SDS011;32042;50.916;2.926;2024-01-27T09:06:12;22.90;;;10.93;;
46318;SDS011;32042;50.916;2.926;2024-01-27T09:08:38;12.00;;;6.30;;
46318;SDS011;32042;50.916;2.926;2024-01-27T09:11:05;19.80;;;9.77;;
46318;SDS011;32042;50.916;2.926;2024-01-27T09:13:31;12.23;;;5.50;;
46318;SDS011;32042;50.916;2.926;2024-01-27T09:15:57;13.90;;;6.63;;
46318;SDS011;32042;50.916;2.926;2024-01-27T09:18:24;16.67;;;6.57;;
46318;SDS011;32042;50.916;2.926;2024-01-27T09:20:50;16.07;;;6.77;;
46318;SDS011;32042;50.916;2.926;2024-01-27T09:23:16;20.13;;;8.40;;
46318;SDS011;32042;50.916;2.926;2024-01-27T09:25:42;14.80;;;8.40;;
46318;SDS011;32042;50.916;2.926;2024-01-27T09:28:08;21.03;;;8.60;;
46318;SDS011;32042;50.916;2.926;2024-01-27T09:30:34;15.77;;;7.53;;
46318;SDS011;32042;50.916;2.926;2024-01-27T09:33:00;17.40;;;8.17;;
46318;SDS011;32042;50.916;2.926;2024-01-27T09:35:26;20.27;;;8.03;;
46318;SDS011;32042;50.916;2.926;2024-01-27T09:37:52;23.70;;;7.87;;
46318;SDS011;32042;50.916;2.926;2024-01-27T09:40:18;19.40;;;7.60;;
46318;SDS011;32042;50.916;2.926;2024-01-27T09:42:50;19.43;;;9.37;;
46318;SDS011;32042;50.916;2.926;2024-01-27T09:45:20;21.70;;;13.40;;
46318;SDS011;32042;50.916;2.926;2024-01-27T09:47:47;20.70;;;10.23;;
46318;SDS011;32042;50.916;2.926;2024-01-27T09:50:13;16.63;;;7.77;;
46318;SDS011;32042;50.916;2.926;2024-01-27T09:52:40;12.70;;;6.47;;
46318;SDS011;32042;50.916;2.926;2024-01-27T09:55:07;21.40;;;7.07;;
46318;SDS011;32042;50.916;2.926;2024-01-27T09:57:33;13.87;;;6.50;;
46318;SDS011;32042;50.916;2.926;2024-01-27T09:59:59;11.97;;;5.83;;
46318;SDS011;32042;50.916;2.926;2024-01-27T10:02:27;12.50;;;6.17;;
46318;SDS011;32042;50.916;2.926;2024-01-27T10:04:53;14.10;;;6.67;;
46318;SDS011;32042;50.916;2.926;2024-01-27T10:07:20;16.97;;;6.53;;
46318;SDS011;32042;50.916;2.926;2024-01-27T10:09:51;22.50;;;11.23;;
46318;SDS011;32042;50.916;2.926;2024-01-27T10:12:17;16.23;;;8.47;;
46318;SDS011;32042;50.916;2.926;2024-01-27T10:14:44;15.80;;;7.30;;
46318;SDS011;32042;50.916;2.926;2024-01-27T10:17:11;14.17;;;7.03;;
46318;SDS011;32042;50.916;2.926;2024-01-27T10:19:37;21.10;;;8.47;;
46318;SDS011;32042;50.916;2.926;2024-01-27T10:22:03;20.47;;;9.47;;
46318;SDS011;32042;50.916;2.926;2024-01-27T10:24:33;18.03;;;8.30;;
46318;SDS011;32042;50.916;2.926;2024-01-27T10:27:03;15.83;;;8.60;;
46318;SDS011;32042;50.916;2.926;2024-01-27T10:29:30;21.30;;;7.97;;
46318;SDS011;32042;50.916;2.926;2024-01-27T10:32:06;16.47;;;7.17;;
46318;SDS011;32042;50.916;2.926;2024-01-27T10:34:33;18.73;;;6.80;;
46318;SDS011;32042;50.916;2.926;2024-01-27T10:36:59;11.60;;;6.80;;
46318;SDS011;32042;50.916;2.926;2024-01-27T10:39:26;18.87;;;7.13;;
46318;SDS011;32042;50.916;2.926;2024-01-27T10:41:52;19.83;;;7.03;;
46318;SDS011;32042;50.916;2.926;2024-01-27T10:44:18;17.70;;;6.80;;
46318;SDS011;32042;50.916;2.926;2024-01-27T10:46:46;12.47;;;6.50;;
46318;SDS011;32042;50.916;2.926;2024-01-27T10:49:13;17.57;;;10.93;;
46318;SDS011;32042;50.916;2.926;2024-01-27T10:51:42;19.37;;;11.30;;
46318;SDS011;32042;50.916;2.926;2024-01-27T10:54:10;23.63;;;13.07;;
46318;SDS011;32042;50.916;2.926;2024-01-27T10:56:38;18.27;;;10.40;;
46318;SDS011;32042;50.916;2.926;2024-01-27T10:59:05;25.83;;;11.90;;
46318;SDS011;32042;50.916;2.926;2024-01-27T11:01:35;17.00;;;8.30;;
46318;SDS011;32042;50.916;2.926;2024-01-27T11:04:02;20.03;;;7.87;;
46318;SDS011;32042;50.916;2.926;2024-01-27T11:06:30;15.33;;;7.57;;
46318;SDS011;32042;50.916;2.926;2024-01-27T11:08:57;19.53;;;6.37;;
46318;SDS011;32042;50.916;2.926;2024-01-27T11:11:25;16.90;;;6.57;;
46318;SDS011;32042;50.916;2.926;2024-01-27T11:13:51;19.53;;;6.67;;
46318;SDS011;32042;50.916;2.926;2024-01-27T11:16:18;13.13;;;6.37;;
46318;SDS011;32042;50.916;2.926;2024-01-27T11:18:44;15.10;;;6.83;;
46318;SDS011;32042;50.916;2.926;2024-01-27T11:21:17;13.33;;;6.63;;
46318;SDS011;32042;50.916;2.926;2024-01-27T11:23:43;15.97;;;5.63;;
46318;SDS011;32042;50.916;2.926;2024-01-27T11:26:16;17.13;;;6.50;;
46318;SDS011;32042;50.916;2.926;2024-01-27T11:28:43;22.03;;;8.93;;
46318;SDS011;32042;50.916;2.926;2024-01-27T11:31:09;29.60;;;11.23;;
46318;SDS011;32042;50.916;2.926;2024-01-27T11:33:42;18.33;;;9.67;;
46318;SDS011;32042;50.916;2.926;2024-01-27T11:36:14;23.30;;;13.03;;
46318;SDS011;32042;50.916;2.926;2024-01-27T11:38:43;12.53;;;6.40;;
46318;SDS011;32042;50.916;2.926;2024-01-27T11:41:09;12.97;;;5.80;;
46318;SDS011;32042;50.916;2.926;2024-01-27T11:43:35;15.63;;;5.00;;
46318;SDS011;32042;50.916;2.926;2024-01-27T11:46:01;13.57;;;5.77;;
46318;SDS011;32042;50.916;2.926;2024-01-27T11:48:27;15.13;;;5.60;;
46318;SDS011;32042;50.916;2.926;2024-01-27T11:51:06;11.07;;;5.30;;
46318;SDS011;32042;50.916;2.926;2024-01-27T11:53:35;16.87;;;6.67;;
46318;SDS011;32042;50.916;2.926;2024-01-27T11:56:02;17.67;;;5.57;;
46318;SDS011;32042;50.916;2.926;2024-01-27T11:58:28;25.50;;;11.03;;
46318;SDS011;32042;50.916;2.926;2024-01-27T12:00:55;20.33;;;10.03;;
46318;SDS011;32042;50.916;2.926;2024-01-27T12:03:21;25.30;;;9.50;;
46318;SDS011;32042;50.916;2.926;2024-01-27T12:05:48;20.20;;;7.80;;
46318;SDS011;32042;50.916;2.926;2024-01-27T12:08:16;13.50;;;4.47;;
46318;SDS011;32042;50.916;2.926;2024-01-27T12:10:42;25.20;;;8.23;;
46318;SDS011;32042;50.916;2.926;2024-01-27T12:13:08;18.07;;;7.63;;
46318;SDS011;32042;50.916;2.926;2024-01-27T12:15:35;14.07;;;5.77;;
46318;SDS011;32042;50.916;2.926;2024-01-27T12:18:01;24.43;;;8.70;;
46318;SDS011;32042;50.916;2.926;2024-01-27T12:20:27;20.13;;;6.80;;
46318;SDS011;32042;50.916;2.926;2024-01-27T12:23:06;39.63;;;15.00;;
46318;SDS011;32042;50.916;2.926;2024-01-27T12:25:32;28.30;;;11.47;;
46318;SDS011;32042;50.916;2.926;2024-01-27T12:28:02;15.33;;;5.63;;
46318;SDS011;32042;50.916;2.926;2024-01-27T12:30:28;13.00;;;5.13;;
46318;SDS011;32042;50.916;2.926;2024-01-27T12:32:54;10.80;;;4.37;;
46318;SDS011;32042;50.916;2.926;2024-01-27T12:35:20;11.57;;;4.67;;
46318;SDS011;32042;50.916;2.926;2024-01-27T12:37:46;13.60;;;4.00;;
46318;SDS011;32042;50.916;2.926;2024-01-27T12:40:19;16.97;;;4.47;;
46318;SDS011;32042;50.916;2.926;2024-01-27T12:42:46;14.73;;;4.95;;
46318;SDS011;32042;50.916;2.926;2024-01-27T12:45:12;17.53;;;3.60;;
46318;SDS011;32042;50.916;2.926;2024-01-27T12:47:39;8.27;;;3.67;;
46318;SDS011;32042;50.916;2.926;2024-01-27T12:50:05;10.13;;;3.67;;
46318;SDS011;32042;50.916;2.926;2024-01-27T12:52:32;8.43;;;3.17;;
46318;SDS011;32042;50.916;2.926;2024-01-27T12:54:58;10.13;;;4.07;;
46318;SDS011;32042;50.916;2.926;2024-01-27T12:57:24;12.10;;;3.63;;
46318;SDS011;32042;50.916;2.926;2024-01-27T12:59:50;10.10;;;3.10;;
46318;SDS011;32042;50.916;2.926;2024-01-27T13:02:16;12.07;;;3.03;;
46318;SDS011;32042;50.916;2.926;2024-01-27T13:04:42;10.13;;;3.67;;
46318;SDS011;32042;50.916;2.926;2024-01-27T13:07:09;11.03;;;2.80;;
46318;SDS011;32042;50.916;2.926;2024-01-27T13:09:36;11.37;;;3.53;;
46318;SDS011;32042;50.916;2.926;2024-01-27T13:12:03;10.10;;;3.57;;
46318;SDS011;32042;50.916;2.926;2024-01-27T13:14:29;14.83;;;3.43;;
46318;SDS011;32042;50.916;2.926;2024-01-27T13:16:55;13.50;;;3.50;;
46318;SDS011;32042;50.916;2.926;2024-01-27T13:19:24;16.73;;;3.92;;
46318;SDS011;32042;50.916;2.926;2024-01-27T13:21:50;17.90;;;4.10;;
46318;SDS011;32042;50.916;2.926;2024-01-27T13:24:16;12.70;;;3.63;;
46318;SDS011;32042;50.916;2.926;2024-01-27T13:26:42;13.37;;;3.80;;
46318;SDS011;32042;50.916;2.926;2024-01-27T13:29:08;10.93;;;2.73;;
46318;SDS011;32042;50.916;2.926;2024-01-27T13:31:34;7.70;;;3.17;;
46318;SDS011;32042;50.916;2.926;2024-01-27T13:34:00;16.63;;;2.60;;
46318;SDS011;32042;50.916;2.926;2024-01-27T13:36:26;11.97;;;2.67;;
46318;SDS011;32042;50.916;2.926;2024-01-27T13:38:53;7.27;;;2.93;;
46318;SDS011;32042;50.916;2.926;2024-01-27T13:41:19;10.07;;;4.50;;
46318;SDS011;32042;50.916;2.926;2024-01-27T13:43:45;8.17;;;3.73;;
46318;SDS011;32042;50.916;2.926;2024-01-27T13:46:11;7.87;;;2.13;;
46318;SDS011;32042;50.916;2.926;2024-01-27T13:48:37;13.07;;;3.30;;
46318;SDS011;32042;50.916;2.926;2024-01-27T13:51:03;12.17;;;2.63;;
46318;SDS011;32042;50.916;2.926;2024-01-27T13:53:29;8.40;;;3.07;;
46318;SDS011;32042;50.916;2.926;2024-01-27T13:55:55;9.63;;;3.57;;
46318;SDS011;32042;50.916;2.926;2024-01-27T13:58:22;10.20;;;2.60;;
46318;SDS011;32042;50.916;2.926;2024-01-27T14:00:48;5.63;;;1.93;;
46318;SDS011;32042;50.916;2.926;2024-01-27T14:03:14;9.10;;;3.20;;
46318;SDS011;32042;50.916;2.926;2024-01-27T14:05:41;9.50;;;3.50;;
46318;SDS011;32042;50.916;2.926;2024-01-27T14:08:09;8.27;;;1.93;;
46318;SDS011;32042;50.916;2.926;2024-01-27T14:10:36;8.23;;;2.60;;
46318;SDS011;32042;50.916;2.926;2024-01-27T14:13:02;11.37;;;3.17;;
46318;SDS011;32042;50.916;2.926;2024-01-27T14:15:30;8.17;;;3.20;;
46318;SDS011;32042;50.916;2.926;2024-01-27T14:17:56;8.67;;;3.20;;
46318;SDS011;32042;50.916;2.926;2024-01-27T14:20:22;12.53;;;2.87;;
46318;SDS011;32042;50.916;2.926;2024-01-27T14:22:48;12.00;;;4.10;;
46318;SDS011;32042;50.916;2.926;2024-01-27T14:25:14;16.40;;;4.63;;
46318;SDS011;32042;50.916;2.926;2024-01-27T14:27:41;13.10;;;4.27;;
46318;SDS011;32042;50.916;2.926;2024-01-27T14:30:07;10.43;;;3.77;;
46318;SDS011;32042;50.916;2.926;2024-01-27T14:32:35;48.73;;;18.70;;